createdAt,value
2018-03-04T00:00:59.966Z,-6.75
2018-03-04T00:02:09.672Z,-6.73
2018-03-04T00:03:19.369Z,-6.66
2018-03-04T00:04:29.076Z,-6.67
2018-03-04T00:05:38.535Z,-6.75
2018-03-04T00:06:48.486Z,-6.73
2018-03-04T00:07:58.439Z,-6.75
2018-03-04T00:09:08.141Z,-6.7
2018-03-04T00:10:17.571Z,-6.79
2018-03-04T00:11:27.549Z,-6.78
2018-03-04T00:12:37.497Z,-6.76
2018-03-04T00:13:47.192Z,-6.76
2018-03-04T00:14:57.141Z,-6.82
2018-03-04T00:16:06.847Z,-6.88
2018-03-04T00:17:16.557Z,-6.88
2018-03-04T00:18:26.253Z,-6.88
2018-03-04T00:19:36.207Z,-6.95
2018-03-04T00:20:46.168Z,-6.96
2018-03-04T00:21:55.861Z,-6.85
2018-03-04T00:23:05.590Z,-6.96
2018-03-04T00:24:15.294Z,-7
2018-03-04T00:25:25.006Z,-6.92
2018-03-04T00:26:34.692Z,-6.99
2018-03-04T00:27:44.799Z,-6.97
2018-03-04T00:28:54.770Z,-6.96
2018-03-04T00:30:04.473Z,-7
2018-03-04T00:31:14.170Z,-6.99
2018-03-04T00:32:23.865Z,-6.99
2018-03-04T00:33:33.301Z,-7.02
2018-03-04T00:34:43.251Z,-7.09
2018-03-04T00:35:52.690Z,-7.17
2018-03-04T00:37:02.132Z,-7.13
2018-03-04T00:38:12.094Z,-7.21
2018-03-04T00:39:21.793Z,-7.23
2018-03-04T00:40:31.501Z,-7.3
2018-03-04T00:41:40.943Z,-7.25
2018-03-04T00:42:50.651Z,-7.24
2018-03-04T00:44:00.356Z,-7.27
2018-03-04T00:45:10.311Z,-7.3
2018-03-04T00:46:20.260Z,-7.25
2018-03-04T00:47:29.952Z,-7.2
2018-03-04T00:48:39.637Z,-7.23
2018-03-04T00:49:49.594Z,-7.24
2018-03-04T00:50:59.548Z,-7.27
2018-03-04T00:52:09.509Z,-7.28
2018-03-04T00:53:18.943Z,-7.28
2018-03-04T00:54:28.678Z,-7.28
2018-03-04T00:55:38.371Z,-7.35
2018-03-04T00:56:48.337Z,-7.32
2018-03-04T00:57:58.534Z,-7.38
2018-03-04T00:59:08.480Z,-7.32
2018-03-04T01:00:18.162Z,-7.3
2018-03-04T01:01:28.122Z,-7.3
2018-03-04T01:02:37.559Z,-7.34
2018-03-04T01:03:47.519Z,-7.34
2018-03-04T01:04:57.203Z,-7.32
2018-03-04T01:06:06.896Z,-7.38
2018-03-04T01:07:16.860Z,-7.34
2018-03-04T01:08:26.027Z,-7.34
2018-03-04T01:09:35.971Z,-7.36
2018-03-04T01:10:45.944Z,-7.35
2018-03-04T01:11:55.650Z,-7.28
2018-03-04T01:13:05.364Z,-7.35
2018-03-04T01:14:14.810Z,-7.3
2018-03-04T01:15:24.497Z,-7.34
2018-03-04T01:16:34.184Z,-7.28
2018-03-04T01:17:43.883Z,-7.34
2018-03-04T01:18:53.090Z,-7.39
2018-03-04T01:20:03.041Z,-7.39
2018-03-04T01:21:12.983Z,-7.39
2018-03-04T01:22:22.938Z,-7.41
2018-03-04T01:23:32.887Z,-7.48
2018-03-04T01:24:42.324Z,-7.41
2018-03-04T01:25:52.015Z,-7.42
2018-03-04T01:27:01.956Z,-7.41
2018-03-04T01:28:11.651Z,-7.5
2018-03-04T01:29:21.330Z,-7.5
2018-03-04T01:30:31.292Z,-7.52
2018-03-04T01:31:40.982Z,-7.48
2018-03-04T01:32:50.988Z,-7.5
2018-03-04T01:34:00.933Z,-7.53
2018-03-04T01:35:10.620Z,-7.46
2018-03-04T01:36:20.301Z,-7.57
2018-03-04T01:37:30.006Z,-7.6
2018-03-04T01:38:39.700Z,-7.52
2018-03-04T01:39:49.388Z,-7.6
2018-03-04T01:40:59.069Z,-7.62
2018-03-04T01:42:08.784Z,-7.62
2018-03-04T01:43:18.737Z,-7.64
2018-03-04T01:44:28.691Z,-7.64
2018-03-04T01:45:38.378Z,-7.67
2018-03-04T01:46:48.065Z,-7.63
2018-03-04T01:47:58.036Z,-7.67
2018-03-04T01:49:08.136Z,-7.75
2018-03-04T01:50:17.827Z,-7.63
2018-03-04T01:51:27.776Z,-7.67
2018-03-04T01:52:36.954Z,-7.7
2018-03-04T01:53:46.907Z,-7.63
2018-03-04T01:54:56.853Z,-7.73
2018-03-04T01:56:06.283Z,-7.64
2018-03-04T01:57:15.715Z,-7.71
2018-03-04T01:58:25.406Z,-7.62
2018-03-04T01:59:34.834Z,-7.64
2018-03-04T02:00:44.527Z,-7.74
2018-03-04T02:01:54.211Z,-7.7
2018-03-04T02:03:03.901Z,-7.71
2018-03-04T02:04:13.073Z,-7.74
2018-03-04T02:05:22.769Z,-7.74
2018-03-04T02:06:32.454Z,-7.71
2018-03-04T02:07:42.140Z,-7.74
2018-03-04T02:08:51.303Z,-7.78
2018-03-04T02:10:00.991Z,-7.71
2018-03-04T02:11:10.937Z,-7.8
2018-03-04T02:12:20.389Z,-7.77
2018-03-04T02:13:30.076Z,-7.8
2018-03-04T02:14:39.778Z,-7.67
2018-03-04T02:15:49.722Z,-7.75
2018-03-04T02:16:59.424Z,-7.85
2018-03-04T02:18:09.160Z,-7.78
2018-03-04T02:19:19.101Z,-7.83
2018-03-04T02:20:29.051Z,-7.83
2018-03-04T02:21:38.230Z,-7.74
2018-03-04T02:22:48.165Z,-7.73
2018-03-04T02:23:57.655Z,-7.74
2018-03-04T02:25:07.357Z,-7.74
2018-03-04T02:26:17.058Z,-7.71
2018-03-04T02:27:26.998Z,-7.77
2018-03-04T02:28:36.945Z,-7.66
2018-03-04T02:29:46.889Z,-7.73
2018-03-04T02:30:56.909Z,-7.8
2018-03-04T02:32:06.341Z,-7.8
2018-03-04T02:33:16.048Z,-7.8
2018-03-04T02:34:26.013Z,-7.85
2018-03-04T02:35:35.715Z,-7.67
2018-03-04T02:36:45.146Z,-7.73
2018-03-04T02:37:55.096Z,-7.88
2018-03-04T02:39:05.090Z,-7.92
2018-03-04T02:40:15.297Z,-7.83
2018-03-04T02:41:25.251Z,-7.81
2018-03-04T02:42:34.950Z,-7.85
2018-03-04T02:43:44.934Z,-7.96
2018-03-04T02:44:54.622Z,-7.91
2018-03-04T02:46:04.575Z,-7.83
2018-03-04T02:47:14.265Z,-7.84
2018-03-04T02:48:24.034Z,-7.85
2018-03-04T02:49:34.017Z,-7.85
2018-03-04T02:50:43.978Z,-7.85
2018-03-04T02:51:54.239Z,-7.92
2018-03-04T02:53:04.236Z,-7.88
2018-03-04T02:54:13.945Z,-7.84
2018-03-04T02:55:23.649Z,-7.89
2018-03-04T02:56:33.617Z,-7.91
2018-03-04T02:57:43.314Z,-7.91
2018-03-04T02:58:53.037Z,-7.91
2018-03-04T03:00:02.485Z,-7.92
2018-03-04T03:01:12.210Z,-7.95
2018-03-04T03:02:21.903Z,-7.92
2018-03-04T03:03:31.346Z,-7.94
2018-03-04T03:04:41.334Z,-8.07
2018-03-04T03:05:51.023Z,-8.03
2018-03-04T03:07:00.729Z,-8.1
2018-03-04T03:08:10.435Z,-7.96
2018-03-04T03:09:20.386Z,-7.98
2018-03-04T03:10:30.072Z,-8.05
2018-03-04T03:11:40.018Z,-8.11
2018-03-04T03:12:49.742Z,-8.13
2018-03-04T03:13:59.689Z,-8.15
2018-03-04T03:15:09.389Z,-8.14
2018-03-04T03:16:19.138Z,-8.2
2018-03-04T03:17:28.563Z,-8.21
2018-03-04T03:18:37.986Z,-8.11
2018-03-04T03:19:47.933Z,-8.11
2018-03-04T03:20:57.879Z,-8.08
2018-03-04T03:22:07.372Z,-8.08
2018-03-04T03:23:17.074Z,-8.11
2018-03-04T03:24:27.032Z,-8.1
2018-03-04T03:25:36.729Z,-8.14
2018-03-04T03:26:46.420Z,-8.13
2018-03-04T03:27:56.364Z,-8.14
2018-03-04T03:29:06.333Z,-8.14
2018-03-04T03:30:16.034Z,-8.17
2018-03-04T03:31:25.473Z,-8.13
2018-03-04T03:32:35.164Z,-8.17
2018-03-04T03:33:44.859Z,-8.2
2018-03-04T03:34:54.543Z,-8.08
2018-03-04T03:36:03.975Z,-8.21
2018-03-04T03:37:13.671Z,-8.15
2018-03-04T03:38:23.770Z,-8.23
2018-03-04T03:39:33.470Z,-8.17
2018-03-04T03:40:42.903Z,-8.18
2018-03-04T03:41:52.331Z,-8.2
2018-03-04T03:43:02.276Z,-8.24
2018-03-04T03:44:11.450Z,-8.21
2018-03-04T03:45:21.147Z,-8.28
2018-03-04T03:46:30.362Z,-8.21
2018-03-04T03:47:40.313Z,-8.18
2018-03-04T03:48:50.261Z,-8.2
2018-03-04T03:49:59.954Z,-8.2
2018-03-04T03:51:09.640Z,-8.29
2018-03-04T03:52:19.329Z,-8.29
2018-03-04T03:53:29.276Z,-8.21
2018-03-04T03:54:38.973Z,-8.28
2018-03-04T03:55:48.920Z,-8.23
2018-03-04T03:56:58.871Z,-8.34
2018-03-04T03:58:08.782Z,-8.34
2018-03-04T03:59:18.724Z,-8.35
2018-03-04T04:00:28.412Z,-8.38
2018-03-04T04:01:38.362Z,-8.38
2018-03-04T04:02:48.315Z,-8.29
2018-03-04T04:03:58.271Z,-8.31
2018-03-04T04:05:08.217Z,-8.28
2018-03-04T04:06:18.430Z,-8.29
2018-03-04T04:07:28.379Z,-8.32
2018-03-04T04:08:38.322Z,-8.24
2018-03-04T04:09:48.011Z,-8.31
2018-03-04T04:10:57.709Z,-8.35
2018-03-04T04:12:07.407Z,-8.39
2018-03-04T04:13:16.835Z,-8.35
2018-03-04T04:14:26.525Z,-8.34
2018-03-04T04:15:36.217Z,-8.31
2018-03-04T04:16:45.897Z,-8.32
2018-03-04T04:17:55.066Z,-8.24
2018-03-04T04:19:05.012Z,-8.28
2018-03-04T04:20:14.770Z,-8.38
2018-03-04T04:21:24.714Z,-8.29
2018-03-04T04:22:34.711Z,-8.29
2018-03-04T04:23:44.667Z,-8.34
2018-03-04T04:24:54.096Z,-8.31
2018-03-04T04:26:03.777Z,-8.38
2018-03-04T04:27:13.224Z,-8.36
2018-03-04T04:28:23.167Z,-8.34
2018-03-04T04:29:33.113Z,-8.35
2018-03-04T04:30:43.062Z,-8.36
2018-03-04T04:31:53.157Z,-8.39
2018-03-04T04:33:03.108Z,-8.46
2018-03-04T04:34:13.106Z,-8.53
2018-03-04T04:35:23.064Z,-8.42
2018-03-04T04:36:33.006Z,-8.42
2018-03-04T04:37:42.951Z,-8.47
2018-03-04T04:38:52.888Z,-8.52
2018-03-04T04:40:02.841Z,-8.53
2018-03-04T04:41:12.801Z,-8.46
2018-03-04T04:42:22.485Z,-8.47
2018-03-04T04:43:31.914Z,-8.41
2018-03-04T04:44:41.369Z,-8.54
2018-03-04T04:45:51.075Z,-8.47
2018-03-04T04:47:00.755Z,-8.46
2018-03-04T04:48:10.953Z,-8.47
2018-03-04T04:49:20.899Z,-8.39
2018-03-04T04:50:30.607Z,-8.52
2018-03-04T04:51:40.560Z,-8.42
2018-03-04T04:52:50.241Z,-8.41
2018-03-04T04:53:59.768Z,-8.47
2018-03-04T04:55:09.724Z,-8.49
2018-03-04T04:56:19.158Z,-8.49
2018-03-04T04:57:28.857Z,-8.47
2018-03-04T04:58:39.050Z,-8.46
2018-03-04T04:59:48.996Z,-8.44
2018-03-04T05:00:57.921Z,-8.44
2018-03-04T05:02:07.352Z,-8.42
2018-03-04T05:03:17.305Z,-8.46
2018-03-04T05:04:26.998Z,-8.44
2018-03-04T05:05:36.936Z,-8.47
2018-03-04T05:06:46.374Z,-8.49
2018-03-04T05:07:56.313Z,-8.54
2018-03-04T05:09:05.996Z,-8.5
2018-03-04T05:10:15.433Z,-8.39
2018-03-04T05:11:25.118Z,-8.47
2018-03-04T05:12:34.816Z,-8.53
2018-03-04T05:13:44.758Z,-8.56
2018-03-04T05:14:54.190Z,-8.57
2018-03-04T05:16:03.881Z,-8.6
2018-03-04T05:17:13.826Z,-8.5
2018-03-04T05:18:23.256Z,-8.64
2018-03-04T05:19:32.953Z,-8.56
2018-03-04T05:20:42.117Z,-8.52
2018-03-04T05:21:51.543Z,-8.62
2018-03-04T05:23:01.489Z,-8.56
2018-03-04T05:24:11.456Z,-8.59
2018-03-04T05:25:21.157Z,-8.64
2018-03-04T05:26:30.583Z,-8.64
2018-03-04T05:27:40.265Z,-8.59
2018-03-04T05:28:49.946Z,-8.67
2018-03-04T05:29:59.889Z,-8.64
2018-03-04T05:31:09.319Z,-8.64
2018-03-04T05:32:19.002Z,-8.6
2018-03-04T05:33:28.429Z,-8.68
2018-03-04T05:34:38.369Z,-8.62
2018-03-04T05:35:48.547Z,-8.68
2018-03-04T05:36:58.242Z,-8.7
2018-03-04T05:38:07.932Z,-8.65
2018-03-04T05:39:17.867Z,-8.73
2018-03-04T05:40:27.579Z,-8.75
2018-03-04T05:41:37.778Z,-8.73
2018-03-04T05:42:47.466Z,-8.74
2018-03-04T05:43:57.404Z,-8.8
2018-03-04T05:45:07.354Z,-8.8
2018-03-04T05:46:17.319Z,-8.85
2018-03-04T05:47:27.008Z,-8.84
2018-03-04T05:48:36.193Z,-8.77
2018-03-04T05:49:46.140Z,-8.71
2018-03-04T05:50:55.822Z,-8.92
2018-03-04T05:52:05.516Z,-8.84
2018-03-04T05:53:15.202Z,-8.78
2018-03-04T05:54:25.141Z,-8.86
2018-03-04T05:55:35.088Z,-8.91
2018-03-04T05:56:44.535Z,-8.92
2018-03-04T05:57:54.226Z,-8.89
2018-03-04T05:59:04.168Z,-8.95
2018-03-04T06:00:13.337Z,-8.89
2018-03-04T06:01:23.020Z,-8.91
2018-03-04T06:02:32.472Z,-8.96
2018-03-04T06:03:42.166Z,-8.91
2018-03-04T06:04:51.850Z,-8.86
2018-03-04T06:06:01.277Z,-8.92
2018-03-04T06:07:11.465Z,-8.77
2018-03-04T06:08:21.170Z,-8.92
2018-03-04T06:09:31.120Z,-8.89
2018-03-04T06:10:40.807Z,-8.88
2018-03-04T06:11:50.762Z,-8.92
2018-03-04T06:13:00.471Z,-8.89
2018-03-04T06:14:10.163Z,-8.82
2018-03-04T06:15:20.106Z,-8.86
2018-03-04T06:16:29.797Z,-8.86
2018-03-04T06:17:39.233Z,-8.77
2018-03-04T06:18:49.213Z,-8.96
2018-03-04T06:19:58.908Z,-8.8
2018-03-04T06:21:08.867Z,-8.77
2018-03-04T06:22:18.551Z,-8.78
2018-03-04T06:23:28.509Z,-8.74
2018-03-04T06:24:38.461Z,-8.77
2018-03-04T06:25:48.273Z,-8.75
2018-03-04T06:26:57.718Z,-8.67
2018-03-04T06:28:07.668Z,-8.75
2018-03-04T06:29:17.625Z,-8.78
2018-03-04T06:30:27.575Z,-8.7
2018-03-04T06:31:37.277Z,-8.65
2018-03-04T06:32:46.970Z,-8.67
2018-03-04T06:33:56.661Z,-8.67
2018-03-04T06:35:06.614Z,-8.62
2018-03-04T06:36:16.036Z,-8.65
2018-03-04T06:37:25.211Z,-8.54
2018-03-04T06:38:34.652Z,-8.42
2018-03-04T06:39:44.086Z,-8.47
2018-03-04T06:40:54.033Z,-8.5
2018-03-04T06:42:03.727Z,-8.39
2018-03-04T06:43:13.737Z,-8.34
2018-03-04T06:44:23.769Z,-8.36
2018-03-04T06:45:33.721Z,-8.42
2018-03-04T06:46:43.673Z,-8.34
2018-03-04T06:47:53.156Z,-8.32
2018-03-04T06:49:02.872Z,-8.32
2018-03-04T06:50:12.567Z,-8.26
2018-03-04T06:51:22.531Z,-8.32
2018-03-04T06:52:31.958Z,-8.29
2018-03-04T06:53:41.915Z,-8.28
2018-03-04T06:54:51.859Z,-8.21
2018-03-04T06:56:01.295Z,-8.07
2018-03-04T06:57:10.991Z,-8.1
2018-03-04T06:58:20.976Z,-8.07
2018-03-04T06:59:30.664Z,-7.91
2018-03-04T07:00:40.347Z,-7.95
2018-03-04T07:01:50.036Z,-7.84
2018-03-04T07:02:59.718Z,-7.83
2018-03-04T07:04:09.462Z,-7.96
2018-03-04T07:05:19.425Z,-7.84
2018-03-04T07:06:28.848Z,-7.85
2018-03-04T07:07:38.813Z,-7.84
2018-03-04T07:08:48.520Z,-7.78
2018-03-04T07:09:57.709Z,-7.74
2018-03-04T07:11:07.145Z,-7.71
2018-03-04T07:12:16.837Z,-7.78
2018-03-04T07:13:26.797Z,-7.74
2018-03-04T07:14:36.241Z,-7.73
2018-03-04T07:15:45.934Z,-7.64
2018-03-04T07:16:55.740Z,-7.62
2018-03-04T07:18:05.535Z,-7.59
2018-03-04T07:19:15.234Z,-7.5
2018-03-04T07:20:24.675Z,-7.5
2018-03-04T07:21:34.366Z,-7.42
2018-03-04T07:22:44.325Z,-7.46
2018-03-04T07:23:53.758Z,-7.48
2018-03-04T07:25:03.444Z,-7.3
2018-03-04T07:26:13.395Z,-7.27
2018-03-04T07:27:23.349Z,-7.25
2018-03-04T07:28:33.315Z,-7.24
2018-03-04T07:29:43.136Z,-7.18
2018-03-04T07:30:52.292Z,-7.17
2018-03-04T07:32:02.264Z,-7.15
2018-03-04T07:33:11.966Z,-7.09
2018-03-04T07:34:21.959Z,-6.97
2018-03-04T07:35:31.654Z,-6.95
2018-03-04T07:36:41.604Z,-6.97
2018-03-04T07:37:51.565Z,-6.92
2018-03-04T07:39:01.520Z,-6.88
2018-03-04T07:40:11.217Z,-6.85
2018-03-04T07:41:20.907Z,-6.82
2018-03-04T07:42:30.875Z,-6.79
2018-03-04T07:43:40.830Z,-6.84
2018-03-04T07:44:50.576Z,-6.7
2018-03-04T07:46:00.269Z,-6.6
2018-03-04T07:47:10.223Z,-6.56
2018-03-04T07:48:20.203Z,-6.45
2018-03-04T07:49:29.896Z,-6.45
2018-03-04T07:50:39.586Z,-6.34
2018-03-04T07:51:49.545Z,-6.36
2018-03-04T07:52:59.481Z,-6.24
2018-03-04T07:54:09.433Z,-6.13
2018-03-04T07:55:19.399Z,-6
2018-03-04T07:56:29.371Z,-5.94
2018-03-04T07:57:39.055Z,-5.89
2018-03-04T07:58:48.745Z,-5.94
2018-03-04T07:59:58.442Z,-5.89
2018-03-04T08:01:08.398Z,-5.68
2018-03-04T08:02:18.339Z,-5.64
2018-03-04T08:03:28.049Z,-5.58
2018-03-04T08:04:37.753Z,-5.56
2018-03-04T08:05:47.186Z,-5.6
2018-03-04T08:06:57.146Z,-5.46
2018-03-04T08:08:07.110Z,-5.37
2018-03-04T08:09:16.845Z,-5.38
2018-03-04T08:10:26.288Z,-5.27
2018-03-04T08:11:36.257Z,-5.1
2018-03-04T08:12:45.720Z,-5
2018-03-04T08:13:55.702Z,-4.98
2018-03-04T08:15:05.673Z,-5.08
2018-03-04T08:16:15.625Z,-4.97
2018-03-04T08:17:25.327Z,-4.91
2018-03-04T08:18:34.552Z,-4.87
2018-03-04T08:19:44.309Z,-4.81
2018-03-04T08:20:54.011Z,-4.88
2018-03-04T08:22:03.716Z,-4.8
2018-03-04T08:23:13.481Z,-4.79
2018-03-04T08:24:22.905Z,-4.47
2018-03-04T08:25:32.934Z,-4.26
2018-03-04T08:26:42.891Z,-4.31
2018-03-04T08:27:52.599Z,-4.13
2018-03-04T08:29:02.563Z,-3.94
2018-03-04T08:30:12.004Z,-3.8
2018-03-04T08:31:21.447Z,-3.64
2018-03-04T08:32:31.135Z,-3.47
2018-03-04T08:33:40.846Z,-3.44
2018-03-04T08:34:50.831Z,-3.4
2018-03-04T08:36:00.559Z,-3.47
2018-03-04T08:37:10.546Z,-3.46
2018-03-04T08:38:20.242Z,-3.43
2018-03-04T08:39:29.945Z,-3.44
2018-03-04T08:40:39.184Z,-3.37
2018-03-04T08:41:48.897Z,-3.25
2018-03-04T08:42:58.860Z,-3.15
2018-03-04T08:44:08.842Z,-3.09
2018-03-04T08:45:18.540Z,-3.05
2018-03-04T08:46:28.506Z,-2.99
2018-03-04T08:47:38.470Z,-2.9
2018-03-04T08:48:48.432Z,-2.76
2018-03-04T08:49:58.136Z,-2.7
2018-03-04T08:51:08.105Z,-2.58
2018-03-04T08:52:18.063Z,-2.47
2018-03-04T08:53:27.759Z,-2.51
2018-03-04T08:54:37.717Z,-2.47
2018-03-04T08:55:47.422Z,-2.58
2018-03-04T08:56:57.124Z,-2.57
2018-03-04T08:58:06.845Z,-2.36
2018-03-04T08:59:17.014Z,-2.25
2018-03-04T09:00:26.981Z,-1.92
2018-03-04T09:01:36.959Z,-2
2018-03-04T09:02:46.659Z,-1.87
2018-03-04T09:03:56.638Z,-1.74
2018-03-04T09:05:06.665Z,-1.56
2018-03-04T09:06:16.368Z,-1.58
2018-03-04T09:07:26.085Z,-1.56
2018-03-04T09:08:35.789Z,-1.51
2018-03-04T09:09:45.019Z,-1.46
2018-03-04T09:10:54.726Z,-1.38
2018-03-04T09:12:04.682Z,-1.4
2018-03-04T09:13:14.655Z,-1.27
2018-03-04T09:14:24.634Z,-1.15
2018-03-04T09:15:34.334Z,-1.14
2018-03-04T09:16:44.312Z,-1.12
2018-03-04T09:17:54.303Z,-1.07
2018-03-04T09:19:04.079Z,-1.14
2018-03-04T09:20:13.791Z,-1.36
2018-03-04T09:21:23.742Z,-1.54
2018-03-04T09:22:33.457Z,-1.64
2018-03-04T09:23:43.158Z,-1.71
2018-03-04T09:24:53.138Z,-1.63
2018-03-04T09:26:02.835Z,-1.69
2018-03-04T09:27:12.804Z,-1.53
2018-03-04T09:28:22.765Z,-1.45
2018-03-04T09:29:32.339Z,-1.4
2018-03-04T09:30:41.785Z,-1.36
2018-03-04T09:31:51.513Z,-1.43
2018-03-04T09:33:01.495Z,-1.57
2018-03-04T09:34:11.574Z,-1.53
2018-03-04T09:35:21.602Z,-1.46
2018-03-04T09:36:31.554Z,-1.38
2018-03-04T09:37:41.260Z,-1.27
2018-03-04T09:38:51.227Z,-1.14
2018-03-04T09:40:01.179Z,-1.11
2018-03-04T09:41:11.150Z,-1.07
2018-03-04T09:42:21.133Z,-1
2018-03-04T09:43:31.090Z,-0.89
2018-03-04T09:44:41.088Z,-0.91
2018-03-04T09:45:50.796Z,-0.97
2018-03-04T09:47:00.775Z,-1.01
2018-03-04T09:48:10.741Z,-0.99
2018-03-04T09:49:20.771Z,-1.03
2018-03-04T09:50:30.227Z,-1.14
2018-03-04T09:51:39.925Z,-0.99
2018-03-04T09:52:49.884Z,-0.89
2018-03-04T09:53:59.592Z,-0.67
2018-03-04T09:55:09.299Z,-0.57
2018-03-04T09:56:18.745Z,-0.44
2018-03-04T09:57:28.717Z,-0.28
2018-03-04T09:58:38.434Z,-0.23
2018-03-04T09:59:47.883Z,-0.17
2018-03-04T10:00:57.585Z,-0.12
2018-03-04T10:02:06.839Z,0
2018-03-04T10:03:16.912Z,0.23
2018-03-04T10:04:26.898Z,0.37
2018-03-04T10:05:36.618Z,0.48
2018-03-04T10:06:46.076Z,0.61
2018-03-04T10:07:56.064Z,0.55
2018-03-04T10:09:05.776Z,0.47
2018-03-04T10:10:15.742Z,0.45
2018-03-04T10:11:25.203Z,0.55
2018-03-04T10:12:35.164Z,0.68
2018-03-04T10:13:44.861Z,0.76
2018-03-04T10:14:54.336Z,0.7
2018-03-04T10:16:03.852Z,0.68
2018-03-04T10:17:13.849Z,0.84
2018-03-04T10:18:23.574Z,1.03
2018-03-04T10:19:33.545Z,1.04
2018-03-04T10:20:43.525Z,1.12
2018-03-04T10:21:53.500Z,0.92
2018-03-04T10:23:03.481Z,0.66
2018-03-04T10:24:13.180Z,0.51
2018-03-04T10:25:22.897Z,0.55
2018-03-04T10:26:32.611Z,0.7
2018-03-04T10:27:42.324Z,0.84
2018-03-04T10:28:52.059Z,0.91
2018-03-04T10:30:01.765Z,0.99
2018-03-04T10:31:11.736Z,0.99
2018-03-04T10:32:21.706Z,1.21
2018-03-04T10:33:31.677Z,1.4
2018-03-04T10:34:41.372Z,1.56
2018-03-04T10:35:51.358Z,1.76
2018-03-04T10:37:01.346Z,1.95
2018-03-04T10:38:11.347Z,2.16
2018-03-04T10:39:21.314Z,2.26
2018-03-04T10:40:31.296Z,2.43
2018-03-04T10:41:41.283Z,2.59
2018-03-04T10:42:51.244Z,2.57
2018-03-04T10:44:01.243Z,2.37
2018-03-04T10:45:11.220Z,2.37
2018-03-04T10:46:20.657Z,2.4
2018-03-04T10:47:30.624Z,2.61
2018-03-04T10:48:40.076Z,2.79
2018-03-04T10:49:49.291Z,2.79
2018-03-04T10:50:59.004Z,3.05
2018-03-04T10:52:08.720Z,3.12
2018-03-04T10:53:18.425Z,3.3
2018-03-04T10:54:28.427Z,3.43
2018-03-04T10:55:38.133Z,3.49
2018-03-04T10:56:48.104Z,3.68
2018-03-04T10:57:57.826Z,3.95
2018-03-04T10:59:07.174Z,3.88
2018-03-04T11:00:16.631Z,3.59
2018-03-04T11:01:26.332Z,3.48
2018-03-04T11:02:36.035Z,3.63
2018-03-04T11:03:46.009Z,3.85
2018-03-04T11:04:55.473Z,3.99
2018-03-04T11:06:05.454Z,4.32
2018-03-04T11:07:15.184Z,4.39
2018-03-04T11:08:25.171Z,4.4
2018-03-04T11:09:35.136Z,4.46
2018-03-04T11:10:45.228Z,4.46
2018-03-04T11:11:54.965Z,4.43
2018-03-04T11:13:04.415Z,4.39
2018-03-04T11:14:14.398Z,4.2
2018-03-04T11:15:24.562Z,4.3
2018-03-04T11:16:34.361Z,4.52
2018-03-04T11:17:44.333Z,4.56
2018-03-04T11:18:54.042Z,4.53
2018-03-04T11:20:04.024Z,4.67
2018-03-04T11:21:13.495Z,4.68
2018-03-04T11:22:22.959Z,4.4
2018-03-04T11:23:32.953Z,4.22
2018-03-04T11:24:42.665Z,4.21
2018-03-04T11:25:52.638Z,3.89
2018-03-04T11:27:02.371Z,3.89
2018-03-04T11:28:11.569Z,3.74
2018-03-04T11:29:21.033Z,3.63
2018-03-04T11:30:30.997Z,3.86
2018-03-04T11:31:40.453Z,3.92
2018-03-04T11:32:50.172Z,4.3
2018-03-04T11:34:00.341Z,4.4
2018-03-04T11:35:10.070Z,4.67
2018-03-04T11:36:19.786Z,4.83
2018-03-04T11:37:29.761Z,4.87
2018-03-04T11:38:39.493Z,4.64
2018-03-04T11:39:48.963Z,4.53
2018-03-04T11:40:58.683Z,4.38
2018-03-04T11:42:08.654Z,4.13
2018-03-04T11:43:18.625Z,4.04
2018-03-04T11:44:28.072Z,4.14
2018-03-04T11:45:37.777Z,4.2
2018-03-04T11:46:47.738Z,4.16
2018-03-04T11:47:57.729Z,4.38
2018-03-04T11:49:07.468Z,4.46
2018-03-04T11:50:16.923Z,4.52
2018-03-04T11:51:26.647Z,4.52
2018-03-04T11:52:36.386Z,4.34
2018-03-04T11:53:46.129Z,4.14
2018-03-04T11:54:56.120Z,3.96
2018-03-04T11:56:05.843Z,4.14
2018-03-04T11:57:15.813Z,4.12
2018-03-04T11:58:25.274Z,4.06
2018-03-04T11:59:35.258Z,4.07
2018-03-04T12:00:45.233Z,4.13
2018-03-04T12:01:54.695Z,4.32
2018-03-04T12:03:04.660Z,4.5
2018-03-04T12:04:14.117Z,4.68
2018-03-04T12:05:23.574Z,4.7
2018-03-04T12:06:33.291Z,4.57
2018-03-04T12:07:43.271Z,4.79
2018-03-04T12:08:52.981Z,4.94
2018-03-04T12:10:02.709Z,5.02
2018-03-04T12:11:12.421Z,5.05
2018-03-04T12:12:22.664Z,5.02
2018-03-04T12:13:32.367Z,4.79
2018-03-04T12:14:42.519Z,4.97
2018-03-04T12:15:52.519Z,5.25
2018-03-04T12:17:02.507Z,5.44
2018-03-04T12:18:12.245Z,5.59
2018-03-04T12:19:22.402Z,5.55
2018-03-04T12:20:32.400Z,5.23
2018-03-04T12:21:42.121Z,4.9
2018-03-04T12:22:51.835Z,4.87
2018-03-04T12:24:01.454Z,5.02
2018-03-04T12:25:11.183Z,5
2018-03-04T12:26:21.167Z,4.68
2018-03-04T12:27:31.155Z,4.67
2018-03-04T12:28:40.859Z,4.84
2018-03-04T12:29:50.913Z,5.15
2018-03-04T12:31:00.476Z,5.22
2018-03-04T12:32:09.963Z,5.23
2018-03-04T12:33:19.719Z,5.43
2018-03-04T12:34:29.185Z,5.51
2018-03-04T12:35:38.900Z,5.69
2018-03-04T12:36:48.705Z,5.88
2018-03-04T12:37:58.678Z,5.7
2018-03-04T12:39:07.918Z,5.76
2018-03-04T12:40:17.881Z,5.65
2018-03-04T12:41:27.844Z,5.69
2018-03-04T12:42:37.556Z,5.77
2018-03-04T12:43:47.268Z,6.09
2018-03-04T12:44:56.979Z,6.16
2018-03-04T12:46:06.975Z,6.28
2018-03-04T12:47:16.932Z,6.35
2018-03-04T12:48:26.650Z,6.53
2018-03-04T12:49:36.115Z,6.35
2018-03-04T12:50:46.145Z,6.2
2018-03-04T12:51:55.860Z,6.31
2018-03-04T12:53:05.586Z,6.47
2018-03-04T12:54:15.573Z,6.47
2018-03-04T12:55:25.597Z,6.75
2018-03-04T12:56:35.686Z,6.89
2018-03-04T12:57:45.419Z,7.01
2018-03-04T12:58:55.588Z,7.19
2018-03-04T13:00:05.322Z,7.36
2018-03-04T13:01:15.117Z,7.39
2018-03-04T13:02:25.168Z,7.21
2018-03-04T13:03:34.882Z,6.85
2018-03-04T13:04:44.585Z,6.87
2018-03-04T13:05:54.058Z,6.62
2018-03-04T13:07:04.048Z,6.75
2018-03-04T13:08:14.030Z,6.32
2018-03-04T13:09:24.015Z,6.13
2018-03-04T13:10:34.001Z,6.28
2018-03-04T13:11:43.974Z,6.28
2018-03-04T13:12:53.971Z,6.32
2018-03-04T13:14:03.700Z,6.38
2018-03-04T13:15:13.414Z,6.5
2018-03-04T13:16:23.395Z,6.74
2018-03-04T13:17:33.128Z,6.9
2018-03-04T13:18:42.835Z,7.07
2018-03-04T13:19:52.299Z,7.07
2018-03-04T13:21:02.013Z,7.04
2018-03-04T13:22:11.981Z,6.95
2018-03-04T13:23:22.013Z,7.13
2018-03-04T13:24:31.982Z,7.21
2018-03-04T13:25:41.955Z,7.14
2018-03-04T13:26:51.407Z,7.28
2018-03-04T13:28:01.121Z,7.22
2018-03-04T13:29:11.093Z,7.31
2018-03-04T13:30:21.085Z,7.28
2018-03-04T13:31:30.279Z,7.29
2018-03-04T13:32:40.272Z,7.31
2018-03-04T13:33:49.986Z,7.39
2018-03-04T13:34:59.742Z,7.53
2018-03-04T13:36:09.737Z,7.39
2018-03-04T13:37:19.869Z,6.93
2018-03-04T13:38:29.869Z,6.62
2018-03-04T13:39:39.316Z,6.15
2018-03-04T13:40:48.513Z,5.87
2018-03-04T13:41:58.260Z,5.87
2018-03-04T13:43:07.985Z,5.97
2018-03-04T13:44:17.980Z,5.95
2018-03-04T13:45:27.433Z,6.17
2018-03-04T13:46:37.259Z,6.1
2018-03-04T13:47:46.983Z,6.26
2018-03-04T13:48:56.963Z,6.41
2018-03-04T13:50:06.440Z,6.15
2018-03-04T13:51:16.413Z,6.07
2018-03-04T13:52:26.142Z,6.09
2018-03-04T13:53:36.113Z,6.16
2018-03-04T13:54:46.078Z,6.1
2018-03-04T13:55:56.057Z,6.01
2018-03-04T13:57:06.036Z,5.98
2018-03-04T13:58:15.751Z,6.1
2018-03-04T13:59:25.752Z,6.06
2018-03-04T14:00:35.741Z,6.07
2018-03-04T14:01:45.484Z,6.06
2018-03-04T14:02:55.482Z,6.01
2018-03-04T14:04:05.225Z,6.12
2018-03-04T14:05:14.688Z,6.02
2018-03-04T14:06:24.405Z,5.97
2018-03-04T14:07:34.385Z,6.07
2018-03-04T14:08:44.360Z,6.09
2018-03-04T14:09:54.074Z,6.09
2018-03-04T14:11:03.538Z,5.94
2018-03-04T14:12:13.287Z,6.09
2018-03-04T14:13:22.996Z,6.16
2018-03-04T14:14:32.981Z,6.29
2018-03-04T14:15:42.952Z,6.1
2018-03-04T14:16:52.671Z,6.1
2018-03-04T14:18:02.369Z,6.17
2018-03-04T14:19:12.118Z,6.32
2018-03-04T14:20:22.109Z,6.44
2018-03-04T14:21:31.612Z,6.38
2018-03-04T14:22:41.084Z,6.29
2018-03-04T14:23:51.090Z,6.25
2018-03-04T14:25:01.066Z,6.29
2018-03-04T14:26:10.783Z,6.35
2018-03-04T14:27:20.504Z,6.2
2018-03-04T14:28:30.482Z,6.31
2018-03-04T14:29:40.194Z,6.32
2018-03-04T14:30:50.152Z,6.52
2018-03-04T14:31:59.618Z,6.36
2018-03-04T14:33:09.078Z,6.56
2018-03-04T14:34:18.793Z,6.8
2018-03-04T14:35:27.989Z,7.08
2018-03-04T14:36:37.716Z,7.26
2018-03-04T14:37:47.688Z,7
2018-03-04T14:38:57.658Z,6.9
2018-03-04T14:40:07.637Z,6.95
2018-03-04T14:41:17.617Z,6.77
2018-03-04T14:42:27.616Z,6.59
2018-03-04T14:43:37.351Z,6.26
2018-03-04T14:44:47.332Z,6.16
2018-03-04T14:45:56.787Z,6.1
2018-03-04T14:47:06.754Z,6.15
2018-03-04T14:48:16.473Z,6.06
2018-03-04T14:49:26.234Z,6.06
2018-03-04T14:50:35.951Z,6.09
2018-03-04T14:51:45.720Z,6.19
2018-03-04T14:52:55.785Z,6.25
2018-03-04T14:54:05.810Z,6.36
2018-03-04T14:55:15.565Z,6.38
2018-03-04T14:56:25.283Z,6.15
2018-03-04T14:57:35.020Z,5.99
2018-03-04T14:58:44.735Z,6.06
2018-03-04T14:59:54.458Z,6.05
2018-03-04T15:01:03.660Z,6.29
2018-03-04T15:02:13.368Z,6.36
2018-03-04T15:03:23.081Z,6.15
2018-03-04T15:04:33.059Z,6.16
2018-03-04T15:05:42.764Z,6.26
2018-03-04T15:06:52.473Z,6.19
2018-03-04T15:08:02.191Z,6.15
2018-03-04T15:09:11.907Z,6.06
2018-03-04T15:10:21.956Z,5.94
2018-03-04T15:11:32.068Z,5.98
2018-03-04T15:12:42.166Z,5.87